Time;durP1;ratioP1;P1;durP2;ratioP2;P2;SDS_P1;SDS_P2;PMS_P1;PMS_P2;Temp;Humidity;BMP_temperature;BMP_pressure;BME280_temperature;BME280_humidity;BME280_pressure;Samples;Min_cycle;Max_cycle;Signal;HPM_P1;HPM_P2
2021/10/16 00:01:48;;;;;;;33.15;23.60;;;256.60;2252.80;;;;;;4912728;29;20029;-86
2021/10/16 00:04:14;;;;;;;33.33;24.23;;;256.60;2252.80;;;;;;4900962;29;20028;-85
2021/10/16 00:06:40;;;;;;;33.85;23.73;;;256.60;2252.80;;;;;;4900784;29;20038;-86
2021/10/16 00:09:06;;;;;;;33.53;23.75;;;256.60;2252.80;;;;;;4909807;29;20040;-87
2021/10/16 00:11:32;;;;;;;32.83;24.45;;;256.60;2252.80;;;;;;4900697;29;20055;-85
2021/10/16 00:13:59;;;;;;;36.97;24.92;;;256.60;2252.80;;;;;;4900704;29;20020;-85
2021/10/16 00:16:25;;;;;;;34.28;24.60;;;256.60;2252.80;;;;;;4898524;29;20060;-85
2021/10/16 00:18:51;;;;;;;40.58;26.10;;;256.50;2252.80;;;;;;4900902;29;20024;-86
2021/10/16 00:21:17;;;;;;;33.45;24.48;;;256.20;2252.80;;;;;;4900484;29;20126;-85
2021/10/16 00:23:43;;;;;;;33.92;24.33;;;256.60;2252.80;;;;;;4900668;29;20052;-86
2021/10/16 00:26:09;;;;;;;37.47;25.42;;;256.60;2252.80;;;;;;4900593;29;20040;-86
2021/10/16 00:28:35;;;;;;;37.35;24.90;;;256.60;2252.80;;;;;;4907401;29;20036;-85
2021/10/16 00:31:01;;;;;;;37.75;25.80;;;256.60;2252.80;;;;;;4909026;29;20020;-85
2021/10/16 00:33:27;;;;;;;35.92;25.20;;;256.60;2252.80;;;;;;4907689;29;20467;-86
2021/10/16 00:35:53;;;;;;;35.92;25.67;;;256.60;2252.80;;;;;;4900200;29;20076;-85
2021/10/16 00:38:19;;;;;;;38.00;23.17;;;256.60;2252.80;;;;;;4899975;29;20099;-85
2021/10/16 00:40:44;;;;;;;36.10;24.48;;;256.60;2252.80;;;;;;4897512;29;20422;-86
2021/10/16 00:43:11;;;;;;;33.05;24.65;;;256.60;2252.80;;;;;;4900099;29;20032;-86
2021/10/16 00:45:36;;;;;;;34.53;24.75;;;256.60;2252.80;;;;;;4900187;29;20020;-86
2021/10/16 00:48:02;;;;;;;36.55;25.42;;;256.60;2252.80;;;;;;4900568;29;20036;-86
2021/10/16 00:50:28;;;;;;;36.70;26.10;;;256.60;2252.80;;;;;;4900590;29;20504;-92
2021/10/16 00:52:54;;;;;;;35.35;24.95;;;256.60;2252.80;;;;;;4901057;29;20032;-93
2021/10/16 00:55:23;;;;;;;35.55;25.75;;;256.60;2252.80;;;;;;4900935;29;20035;-86
2021/10/16 00:57:49;;;;;;;38.28;26.70;;;256.60;2252.80;;;;;;4900595;29;20135;-84
2021/10/16 01:00:15;;;;;;;36.22;25.48;;;256.60;2252.80;;;;;;4901034;29;20032;-92
2021/10/16 01:02:41;;;;;;;34.72;25.02;;;256.60;2252.80;;;;;;4917339;29;20036;-93
2021/10/16 01:05:08;;;;;;;39.35;27.02;;;256.50;2252.80;;;;;;4900963;29;20118;-86
2021/10/16 01:07:37;;;;;;;36.10;25.02;;;256.60;2252.80;;;;;;4901041;29;20107;-85
2021/10/16 01:10:05;;;;;;;38.80;25.98;;;256.50;2252.80;;;;;;4900995;29;20040;-86
2021/10/16 01:12:31;;;;;;;36.28;25.85;;;256.60;2252.80;;;;;;4901090;29;20430;-85
2021/10/16 01:15:02;;;;;;;41.17;26.65;;;256.50;2252.80;;;;;;4917913;29;20036;-86
2021/10/16 01:17:33;;;;;;;38.60;26.73;;;256.60;2252.80;;;;;;4900728;29;20028;-85
2021/10/16 01:20:11;;;;;;;38.83;26.13;;;256.60;2252.80;;;;;;4900770;29;20035;-85
2021/10/16 01:22:39;;;;;;;40.15;26.40;;;256.50;2252.80;;;;;;4900705;29;20024;-85
2021/10/16 01:25:13;;;;;;;37.38;26.70;;;256.50;2252.80;;;;;;4900439;29;20363;-85
2021/10/16 01:27:40;;;;;;;37.97;26.00;;;256.50;2252.80;;;;;;4900661;29;20036;-85
2021/10/16 01:30:09;;;;;;;36.17;25.77;;;256.60;2252.80;;;;;;4917508;29;20541;-86
2021/10/16 01:32:36;;;;;;;39.50;27.30;;;256.60;2252.80;;;;;;4900784;29;20088;-86
2021/10/16 01:35:06;;;;;;;37.00;25.58;;;256.60;2252.80;;;;;;4900758;29;20028;-85
2021/10/16 01:37:32;;;;;;;34.20;24.45;;;256.50;2252.80;;;;;;4900604;29;20027;-85
2021/10/16 01:39:58;;;;;;;38.08;25.33;;;256.50;2252.80;;;;;;4916913;29;20028;-86
2021/10/16 01:42:24;;;;;;;35.67;25.15;;;256.50;2252.80;;;;;;4900186;29;20370;-86
2021/10/16 01:44:50;;;;;;;38.65;25.80;;;256.50;2252.80;;;;;;4900563;29;20084;-85
2021/10/16 01:47:16;;;;;;;33.10;23.50;;;256.50;2252.80;;;;;;4900450;29;20039;-86
2021/10/16 01:49:42;;;;;;;34.90;24.45;;;256.50;2252.80;;;;;;4917127;29;20087;-85
2021/10/16 01:52:08;;;;;;;34.88;24.17;;;256.50;2252.80;;;;;;4900578;29;20035;-86
2021/10/16 01:54:34;;;;;;;34.60;23.90;;;256.50;2252.80;;;;;;4903089;29;20035;-86
2021/10/16 01:57:00;;;;;;;37.78;25.63;;;256.40;2252.80;;;;;;4920347;29;20041;-86
2021/10/16 01:59:27;;;;;;;32.90;24.38;;;256.40;2252.80;;;;;;4903783;29;20028;-86
2021/10/16 02:01:54;;;;;;;37.85;25.25;;;256.40;2252.80;;;;;;4920580;29;20055;-86
2021/10/16 02:04:20;;;;;;;36.75;24.85;;;256.40;2252.80;;;;;;4920499;29;20115;-85
2021/10/16 02:06:47;;;;;;;40.70;26.60;;;256.40;2252.80;;;;;;4903672;29;20035;-85
2021/10/16 02:09:13;;;;;;;35.20;24.45;;;256.40;2252.80;;;;;;4920350;29;20107;-86
2021/10/16 02:11:39;;;;;;;35.83;24.38;;;256.40;2252.80;;;;;;4903569;29;20025;-86
2021/10/16 02:14:09;;;;;;;33.92;24.02;;;256.40;2252.80;;;;;;4903173;29;20397;-86
2021/10/16 02:16:36;;;;;;;33.88;24.50;;;256.30;2252.80;;;;;;4903370;29;20020;-85
2021/10/16 02:19:04;;;;;;;41.33;24.95;;;256.40;2252.80;;;;;;4920148;29;20028;-86
2021/10/16 02:21:30;;;;;;;38.42;25.75;;;256.40;2252.80;;;;;;4903456;29;20050;-86
2021/10/16 02:23:55;;;;;;;36.78;24.70;;;256.40;2252.80;;;;;;4903285;29;20473;-86
2021/10/16 02:26:21;;;;;;;38.28;24.85;;;256.50;2252.80;;;;;;4902982;29;20385;-85
2021/10/16 02:28:47;;;;;;;32.63;24.00;;;256.40;2252.80;;;;;;4920028;29;20033;-86
2021/10/16 02:31:13;;;;;;;37.47;23.60;;;256.40;2252.80;;;;;;4920158;29;20025;-85
2021/10/16 02:33:39;;;;;;;33.95;22.80;;;256.40;2252.80;;;;;;4903178;29;20040;-86
2021/10/16 02:36:05;;;;;;;30.00;21.95;;;256.40;2252.80;;;;;;4920195;29;20485;-86
2021/10/16 02:38:31;;;;;;;28.45;20.95;;;256.40;2252.80;;;;;;4903083;29;20028;-86
2021/10/16 02:40:57;;;;;;;30.85;22.98;;;256.40;2252.80;;;;;;4902997;29;20028;-86
2021/10/16 02:43:23;;;;;;;35.05;24.08;;;256.40;2252.80;;;;;;4902819;29;20180;-86
2021/10/16 02:45:49;;;;;;;33.67;21.65;;;256.40;2252.80;;;;;;4902858;29;20029;-85
2021/10/16 02:48:15;;;;;;;31.45;22.30;;;256.40;2252.80;;;;;;4902679;29;20043;-85
2021/10/16 02:50:41;;;;;;;32.72;22.33;;;256.40;2252.80;;;;;;4902864;29;20048;-86
2021/10/16 02:53:06;;;;;;;30.63;21.55;;;256.40;2252.80;;;;;;4902854;29;20032;-86
2021/10/16 02:55:32;;;;;;;30.30;22.65;;;256.40;2252.80;;;;;;4919325;29;20036;-86
2021/10/16 02:57:58;;;;;;;28.73;20.55;;;256.40;2252.80;;;;;;4919154;29;20116;-86
2021/10/16 03:00:26;;;;;;;30.05;21.50;;;256.40;2252.80;;;;;;4902629;29;20062;-85
2021/10/16 03:02:52;;;;;;;29.38;22.45;;;256.40;2252.80;;;;;;4902613;29;20020;-85
2021/10/16 03:05:18;;;;;;;30.73;21.85;;;256.40;2252.80;;;;;;4902113;29;20127;-85
2021/10/16 03:07:44;;;;;;;29.85;21.65;;;256.30;2252.80;;;;;;4902471;29;20042;-86
2021/10/16 03:10:10;;;;;;;29.25;21.35;;;256.30;2252.80;;;;;;4902443;29;20127;-86
2021/10/16 03:12:36;;;;;;;28.33;20.95;;;256.30;2252.80;;;;;;4919312;29;20060;-85
2021/10/16 03:15:02;;;;;;;29.30;21.67;;;256.30;2252.80;;;;;;4902599;29;20497;-85
2021/10/16 03:17:28;;;;;;;30.67;20.75;;;256.30;2252.80;;;;;;4902578;29;20032;-86
2021/10/16 03:19:53;;;;;;;30.25;21.17;;;256.30;2252.80;;;;;;4902451;29;20500;-86
2021/10/16 03:22:20;;;;;;;32.20;21.45;;;256.30;2252.80;;;;;;4902176;29;20028;-86
2021/10/16 03:24:46;;;;;;;29.67;21.70;;;256.30;2252.80;;;;;;4919038;29;20083;-85
2021/10/16 03:27:12;;;;;;;32.08;22.35;;;256.30;2252.80;;;;;;4918965;29;20028;-85
2021/10/16 03:29:38;;;;;;;28.75;21.20;;;256.30;2252.80;;;;;;4902139;29;20405;-86
2021/10/16 03:32:04;;;;;;;32.67;22.40;;;256.30;2252.80;;;;;;4918855;29;20103;-86
2021/10/16 03:34:30;;;;;;;33.88;24.58;;;256.20;2252.80;;;;;;4901870;29;20032;-86
2021/10/16 03:36:57;;;;;;;44.28;30.75;;;256.30;2252.80;;;;;;4901850;29;20500;-86
2021/10/16 03:39:23;;;;;;;37.80;27.13;;;256.20;2252.80;;;;;;4901993;29;20051;-86
2021/10/16 03:41:49;;;;;;;34.40;26.15;;;256.20;2252.80;;;;;;4901785;29;20115;-86
2021/10/16 03:44:15;;;;;;;35.65;25.40;;;256.20;2252.80;;;;;;4902258;29;20032;-85
2021/10/16 03:46:41;;;;;;;35.50;24.13;;;256.20;2252.80;;;;;;4918775;29;20032;-86
2021/10/16 03:49:07;;;;;;;40.35;26.40;;;256.20;2252.80;;;;;;4918675;29;20032;-86
2021/10/16 03:51:33;;;;;;;37.83;24.30;;;256.20;2252.80;;;;;;4901878;29;20052;-87
2021/10/16 03:54:01;;;;;;;33.67;24.90;;;256.20;2252.80;;;;;;4918631;29;20054;-87
2021/10/16 03:56:27;;;;;;;37.05;26.35;;;256.20;2252.80;;;;;;4901794;29;20026;-86
2021/10/16 03:58:52;;;;;;;38.33;26.55;;;256.20;2252.80;;;;;;4918405;29;20071;-85
2021/10/16 04:01:18;;;;;;;39.05;27.23;;;256.30;2252.80;;;;;;4901613;29;20068;-86
2021/10/16 04:03:44;;;;;;;39.38;26.00;;;256.20;2252.80;;;;;;4918527;29;20048;-86
2021/10/16 04:06:10;;;;;;;38.78;25.73;;;256.30;2252.80;;;;;;4918256;29;20084;-85
2021/10/16 04:08:36;;;;;;;33.42;23.73;;;256.30;2252.80;;;;;;4901276;29;20036;-85
2021/10/16 04:11:02;;;;;;;37.78;26.30;;;256.30;2252.80;;;;;;4918332;29;20097;-86
2021/10/16 04:13:28;;;;;;;31.88;23.67;;;256.30;2252.80;;;;;;4901395;29;20032;-86
2021/10/16 04:15:54;;;;;;;33.28;24.40;;;256.30;2252.80;;;;;;4900743;29;20028;-86
2021/10/16 04:18:20;;;;;;;32.58;24.08;;;256.30;2252.80;;;;;;4901478;29;20386;-86
2021/10/16 04:20:46;;;;;;;32.55;23.05;;;256.30;2252.80;;;;;;4901309;29;20036;-85
2021/10/16 04:23:12;;;;;;;30.45;22.50;;;256.30;2252.80;;;;;;4901176;29;20115;-86
2021/10/16 04:25:38;;;;;;;33.22;22.95;;;256.30;2252.80;;;;;;4901087;29;20027;-86
2021/10/16 04:28:04;;;;;;;32.40;23.30;;;256.30;2252.80;;;;;;4901170;29;20389;-86
2021/10/16 04:30:30;;;;;;;30.30;22.13;;;256.30;2252.80;;;;;;4901353;29;20449;-86
2021/10/16 04:32:58;;;;;;;35.55;23.73;;;256.30;2252.80;;;;;;4901123;29;20047;-86
2021/10/16 04:35:24;;;;;;;35.20;24.00;;;256.40;2252.80;;;;;;4901299;29;20032;-86
2021/10/16 04:37:50;;;;;;;32.60;24.00;;;256.30;2252.80;;;;;;4917900;29;20075;-86
2021/10/16 04:40:18;;;;;;;34.97;23.60;;;256.30;2252.80;;;;;;4901194;29;20020;-86
2021/10/16 04:42:45;;;;;;;31.58;22.75;;;256.30;2252.80;;;;;;4901115;29;20095;-85
2021/10/16 04:45:12;;;;;;;35.58;24.48;;;256.30;2252.80;;;;;;4901057;29;20024;-85
2021/10/16 04:47:38;;;;;;;37.53;26.17;;;256.20;2252.80;;;;;;4901057;29;20509;-85
2021/10/16 04:50:06;;;;;;;40.08;26.50;;;256.20;2252.80;;;;;;4901058;29;20028;-87
2021/10/16 04:52:33;;;;;;;41.05;26.38;;;256.20;2252.80;;;;;;4917794;29;20031;-86
2021/10/16 04:54:59;;;;;;;35.63;24.95;;;256.10;2252.80;;;;;;4917863;29;20496;-86
2021/10/16 04:57:25;;;;;;;35.83;25.38;;;256.10;2252.80;;;;;;4890852;29;20045;-86
2021/10/16 04:59:51;;;;;;;35.30;26.15;;;256.00;2252.80;;;;;;4879116;29;20497;-86
2021/10/16 05:02:17;;;;;;;43.92;28.27;;;256.00;2252.80;;;;;;4879064;29;20032;-86
2021/10/16 05:04:43;;;;;;;44.60;30.30;;;256.10;2252.80;;;;;;4880170;29;20033;-86
2021/10/16 05:07:09;;;;;;;50.80;32.58;;;256.20;2252.80;;;;;;4878796;29;20372;-85
2021/10/16 05:09:35;;;;;;;48.35;32.80;;;256.10;2252.80;;;;;;4880153;29;20032;-86
2021/10/16 05:12:00;;;;;;;55.67;34.58;;;256.20;2252.80;;;;;;4878988;29;20497;-86
2021/10/16 05:14:26;;;;;;;46.38;31.15;;;256.20;2252.80;;;;;;4878939;29;20040;-86
2021/10/16 05:16:52;;;;;;;44.30;30.92;;;256.20;2252.80;;;;;;4879056;29;20036;-85
2021/10/16 05:19:18;;;;;;;42.17;28.92;;;256.10;2252.80;;;;;;4880059;29;20033;-93
2021/10/16 05:21:44;;;;;;;39.92;27.13;;;256.20;2252.80;;;;;;4878972;29;20056;-94
2021/10/16 05:24:10;;;;;;;36.78;26.02;;;256.20;2252.80;;;;;;4880218;29;20394;-86
2021/10/16 05:26:36;;;;;;;62.75;39.63;;;256.20;2252.80;;;;;;4879084;29;20025;-86
2021/10/16 05:29:03;;;;;;;94.15;55.30;;;256.20;2252.80;;;;;;4882480;29;20128;-86
2021/10/16 05:31:29;;;;;;;75.38;43.05;;;256.30;2252.80;;;;;;4882669;29;20221;-85
2021/10/16 05:33:55;;;;;;;79.65;42.22;;;256.20;2252.80;;;;;;4882351;29;20044;-85
2021/10/16 05:36:21;;;;;;;69.78;36.15;;;256.20;2252.80;;;;;;4882337;29;20025;-86
2021/10/16 05:38:47;;;;;;;64.35;32.95;;;256.20;2252.80;;;;;;4882223;29;20037;-86
2021/10/16 05:41:14;;;;;;;64.95;35.67;;;256.10;2252.80;;;;;;4883325;29;20032;-87
2021/10/16 05:43:40;;;;;;;72.57;37.45;;;256.20;2252.80;;;;;;4882211;29;20127;-86
2021/10/16 05:46:06;;;;;;;70.30;38.13;;;256.20;2252.80;;;;;;4882182;29;20040;-85
2021/10/16 05:48:32;;;;;;;54.20;32.90;;;256.20;2252.80;;;;;;4883377;29;20047;-86
2021/10/16 05:50:59;;;;;;;44.22;29.98;;;256.20;2252.80;;;;;;4882068;29;20065;-86
2021/10/16 05:53:25;;;;;;;39.03;28.50;;;256.30;2252.80;;;;;;4883111;29;20033;-86
2021/10/16 05:55:51;;;;;;;42.25;29.95;;;256.40;2252.80;;;;;;4881975;29;20123;-85
2021/10/16 05:58:17;;;;;;;37.63;27.83;;;256.40;2252.80;;;;;;4881935;29;20448;-94
2021/10/16 06:00:43;;;;;;;43.83;29.50;;;256.40;2252.80;;;;;;4884830;29;20029;-85
2021/10/16 06:03:09;;;;;;;52.10;32.80;;;256.40;2252.80;;;;;;4884743;29;20422;-85
2021/10/16 06:05:37;;;;;;;47.50;31.42;;;256.40;2252.80;;;;;;4884941;29;20032;-85
2021/10/16 06:08:03;;;;;;;43.03;30.40;;;256.40;2252.80;;;;;;4901593;29;20577;-86
2021/10/16 06:10:29;;;;;;;56.47;36.42;;;256.50;2252.80;;;;;;4884958;29;20032;-85
2021/10/16 06:12:55;;;;;;;51.72;35.55;;;256.60;2252.80;;;;;;4901641;29;20040;-85
2021/10/16 06:15:21;;;;;;;42.15;31.08;;;256.60;2252.80;;;;;;4884673;29;20036;-86
2021/10/16 06:17:47;;;;;;;46.03;32.40;;;256.70;2252.80;;;;;;4884662;29;20033;-85
2021/10/16 06:20:13;;;;;;;46.63;33.55;;;256.70;2252.80;;;;;;4901344;29;20112;-85
2021/10/16 06:22:39;;;;;;;89.35;55.83;;;256.70;2252.80;;;;;;4884468;29;20554;-85
2021/10/16 06:25:05;;;;;;;59.95;42.50;;;256.80;2252.80;;;;;;4884412;29;20131;-85
2021/10/16 06:27:31;;;;;;;55.45;39.53;;;256.90;2252.80;;;;;;4884273;29;20036;-85
2021/10/16 06:29:57;;;;;;;55.78;39.22;;;256.90;2252.80;;;;;;4901144;29;20049;-85
2021/10/16 06:32:23;;;;;;;50.67;35.58;;;256.90;2252.80;;;;;;4884357;29;20032;-85
2021/10/16 06:34:49;;;;;;;45.97;32.95;;;281.60;2278.40;;;;;;4884432;29;20040;-86
2021/10/16 06:37:16;;;;;;;39.53;27.15;;;281.60;2278.40;;;;;;4900415;29;20441;-85
2021/10/16 06:39:42;;;;;;;33.95;26.23;;;281.70;2278.40;;;;;;4882750;29;20083;-84
2021/10/16 06:42:09;;;;;;;36.03;28.02;;;281.70;2278.40;;;;;;4883497;29;20036;-85
2021/10/16 06:44:34;;;;;;;36.97;26.00;;;281.80;2278.40;;;;;;4883650;29;20025;-85
2021/10/16 06:47:00;;;;;;;38.83;26.83;;;281.80;2278.40;;;;;;4883552;29;20036;-93
2021/10/16 06:49:26;;;;;;;43.67;28.65;;;281.90;2278.40;;;;;;4883848;29;20036;-96
2021/10/16 06:51:52;;;;;;;43.42;26.40;;;282.00;2278.40;;;;;;4898078;29;20107;-85
2021/10/16 06:54:18;;;;;;;50.80;30.25;;;282.00;2278.40;;;;;;4883616;29;20116;-85
2021/10/16 06:56:44;;;;;;;81.32;56.60;;;282.10;2278.40;;;;;;4884761;29;20036;-86
2021/10/16 06:59:11;;;;;;;71.75;42.83;;;282.20;2278.40;;;;;;4899302;29;20060;-85
2021/10/16 07:01:37;;;;;;;90.40;59.60;;;282.20;2278.40;;;;;;4899084;29;20040;-85
2021/10/16 07:04:03;;;;;;;120.70;84.88;;;282.20;2278.40;;;;;;4902159;29;20036;-86
2021/10/16 07:06:29;;;;;;;99.05;61.38;;;282.30;2278.40;;;;;;4926314;29;20039;-86
2021/10/16 07:08:54;;;;;;;53.28;31.83;;;282.30;2278.40;;;;;;4926897;29;20035;-92
2021/10/16 07:11:21;;;;;;;44.50;27.08;;;282.30;2278.40;;;;;;4911519;29;20083;-90
2021/10/16 07:13:47;;;;;;;37.60;26.73;;;282.40;2278.40;;;;;;4908279;29;20033;-91
2021/10/16 07:16:12;;;;;;;34.72;23.58;;;282.40;2278.40;;;;;;4912184;29;20027;-91
2021/10/16 07:18:39;;;;;;;43.55;27.55;;;307.20;2304.00;;;;;;4909995;29;20478;-92
2021/10/16 07:21:05;;;;;;;32.60;22.45;;;307.20;2304.00;;;;;;4906737;29;20017;-92
2021/10/16 07:23:31;;;;;;;55.80;28.83;;;307.30;2304.00;;;;;;4909127;29;20028;-92
2021/10/16 07:25:58;;;;;;;61.05;34.85;;;307.20;2304.00;;;;;;4906495;29;20021;-93
2021/10/16 07:28:25;;;;;;;50.45;27.92;;;307.50;2304.00;;;;;;4898568;29;20037;-92
2021/10/16 07:30:51;;;;;;;88.28;44.63;;;307.40;2304.00;;;;;;4902180;29;20028;-92
2021/10/16 07:33:17;;;;;;;148.55;54.90;;;307.60;2304.00;;;;;;4917864;29;20059;-93
2021/10/16 07:35:44;;;;;;;171.90;69.13;;;307.60;2304.00;;;;;;4908286;29;20027;-92
2021/10/16 07:38:11;;;;;;;148.95;62.90;;;307.60;2252.80;;;;;;4908647;29;20028;-93
2021/10/16 07:40:37;;;;;;;62.65;36.63;;;307.70;2304.00;;;;;;4910298;29;20033;-92
2021/10/16 07:43:03;;;;;;;34.83;24.38;;;307.80;2252.80;;;;;;4906848;29;20020;-93
2021/10/16 07:45:29;;;;;;;29.63;21.65;;;307.90;2252.80;;;;;;4907359;29;20033;-92
2021/10/16 07:47:55;;;;;;;37.05;25.00;;;307.90;2201.60;;;;;;4909481;29;20066;-91
2021/10/16 07:50:21;;;;;;;34.58;25.08;;;308.10;2201.60;;;;;;4910767;29;20031;-92
2021/10/16 07:52:47;;;;;;;33.20;22.65;;;332.80;2176.00;;;;;;4907497;29;20035;-91
2021/10/16 07:55:14;;;;;;;32.42;25.17;;;332.80;2176.00;;;;;;4907236;29;20028;-89
2021/10/16 07:57:39;;;;;;;28.33;21.38;;;332.90;2201.60;;;;;;4901916;29;20056;-76
2021/10/16 08:00:07;;;;;;;54.20;21.60;;;332.90;2099.20;;;;;;4906219;29;20041;-75
2021/10/16 08:02:33;;;;;;;35.80;23.52;;;333.00;2124.80;;;;;;4906800;29;20017;-75
2021/10/16 08:05:01;;;;;;;30.77;20.90;;;333.10;2150.40;;;;;;4907644;29;20039;-75
2021/10/16 08:07:28;;;;;;;34.38;19.65;;;333.20;2124.80;;;;;;4889444;29;20081;-75
2021/10/16 08:09:54;;;;;;;31.52;20.63;;;333.30;2099.20;;;;;;4889668;29;20031;-75
2021/10/16 08:12:20;;;;;;;38.50;23.38;;;333.30;2099.20;;;;;;4907640;29;20083;-75
2021/10/16 08:14:46;;;;;;;27.13;18.63;;;333.30;2048.00;;;;;;4889187;29;20029;-75
2021/10/16 08:17:12;;;;;;;29.88;18.10;;;333.30;2073.60;;;;;;4906643;29;20055;-75
2021/10/16 08:19:37;;;;;;;148.35;78.68;;;333.40;2048.00;;;;;;4907485;29;20025;-75
2021/10/16 08:22:03;;;;;;;127.47;48.95;;;333.60;2073.60;;;;;;4905607;29;20021;-75
2021/10/16 08:24:29;;;;;;;1027.57;395.50;;;333.70;2022.40;;;;;;4906898;29;20027;-75
2021/10/16 08:26:56;;;;;;;1309.93;563.60;;;358.40;2022.40;;;;;;4907169;29;20020;-79
2021/10/16 08:29:22;;;;;;;150.82;67.90;;;358.60;2022.40;;;;;;4888561;29;20046;-79
2021/10/16 08:31:49;;;;;;;865.22;434.90;;;358.80;1971.20;;;;;;4890340;29;20052;-79
2021/10/16 08:34:15;;;;;;;72.53;40.30;;;359.00;1971.20;;;;;;4890183;29;20474;-79
2021/10/16 08:36:41;;;;;;;187.43;102.72;;;359.10;1945.60;;;;;;4888582;29;20025;-80
2021/10/16 08:39:08;;;;;;;162.75;95.50;;;384.00;1843.20;;;;;;4886944;29;20037;-79
2021/10/16 08:41:35;;;;;;;52.15;27.30;;;384.20;1817.60;;;;;;4889383;29;20083;-79
2021/10/16 08:44:01;;;;;;;35.95;23.80;;;384.30;1792.00;;;;;;4890522;29;20040;-79
2021/10/16 08:46:29;;;;;;;332.15;238.98;;;384.60;1792.00;;;;;;4888748;29;20055;-79
2021/10/16 08:49:01;;;;;;;101.85;74.47;;;384.50;1766.40;;;;;;4906208;29;20040;-79
2021/10/16 08:51:27;;;;;;;57.67;34.17;;;384.50;1740.80;;;;;;4886197;29;20029;-79
2021/10/16 08:53:53;;;;;;;51.50;28.77;;;384.60;1766.40;;;;;;4890562;29;20039;-79
2021/10/16 08:56:23;;;;;;;51.78;36.13;;;384.20;1766.40;;;;;;4899316;29;20028;-79
2021/10/16 08:58:50;;;;;;;20.02;14.07;;;384.30;1740.80;;;;;;4914658;29;20410;-79
2021/10/16 09:01:16;;;;;;;38.92;24.58;;;384.40;1715.20;;;;;;4916008;29;20045;-79
2021/10/16 09:03:51;;;;;;;34.50;19.80;;;384.10;1740.80;;;;;;4920303;29;20040;-80
2021/10/16 09:06:40;;;;;;;36.83;21.55;;;384.30;1766.40;;;;;;4920001;29;20032;-80
2021/10/16 09:09:10;;;;;;;36.28;19.45;;;384.40;1664.00;;;;;;4919572;29;20044;-79
2021/10/16 09:11:37;;;;;;;38.58;23.48;;;384.50;1689.60;;;;;;4919675;29;20024;-79
2021/10/16 09:14:09;;;;;;;22.33;14.90;;;384.60;1689.60;;;;;;4921133;29;20031;-79
2021/10/16 09:16:37;;;;;;;25.92;16.48;;;384.60;1664.00;;;;;;4921233;29;20033;-79
2021/10/16 09:19:09;;;;;;;44.58;27.15;;;384.80;1664.00;;;;;;4920733;29;20035;-78
2021/10/16 09:21:37;;;;;;;32.53;22.80;;;409.70;1689.60;;;;;;4893350;29;20022;-80
2021/10/16 09:24:09;;;;;;;39.92;21.80;;;409.80;1638.40;;;;;;4920663;29;20500;-78
2021/10/16 09:26:41;;;;;;;31.60;21.67;;;410.00;1664.00;;;;;;4913285;29;20137;-92
2021/10/16 09:29:09;;;;;;;23.75;16.13;;;410.10;1638.40;;;;;;4911743;29;20069;-77
2021/10/16 09:31:41;;;;;;;29.15;20.00;;;410.10;1587.20;;;;;;4911243;29;20030;-78
2021/10/16 09:34:09;;;;;;;21.40;15.60;;;410.40;1561.60;;;;;;4915566;29;20133;-78
2021/10/16 09:36:36;;;;;;;28.92;17.40;;;410.20;1587.20;;;;;;4895115;29;20115;-77
2021/10/16 09:39:05;;;;;;;28.98;15.65;;;410.20;1536.00;;;;;;4908663;29;20047;-78
2021/10/16 09:41:35;;;;;;;27.70;17.48;;;410.40;1587.20;;;;;;4901263;29;20029;-77
2021/10/16 09:44:03;;;;;;;33.05;19.77;;;435.30;1561.60;;;;;;4881566;29;20052;-77
2021/10/16 09:46:29;;;;;;;25.00;15.55;;;435.90;1459.20;;;;;;4881507;29;20025;-77
2021/10/16 09:49:06;;;;;;;24.08;15.65;;;460.90;1433.60;;;;;;4881419;29;20044;-78
2021/10/16 09:51:32;;;;;;;23.55;14.40;;;512.00;1305.60;;;;;;4881307;29;20029;-78
2021/10/16 09:54:08;;;;;;;17.00;11.52;;;563.20;1177.60;;;;;;4882459;29;20112;-78
2021/10/16 09:56:36;;;;;;;23.13;12.90;;;563.90;1075.20;;;;;;4882493;29;20026;-78
2021/10/16 09:59:03;;;;;;;26.65;14.75;;;589.30;1024.00;;;;;;4884333;29;20524;-78
2021/10/16 10:01:30;;;;;;;21.20;13.38;;;588.80;1024.00;;;;;;4884338;29;20052;-78
2021/10/16 10:03:56;;;;;;;23.42;13.65;;;538.50;1049.60;;;;;;4884227;29;20435;-78
2021/10/16 10:06:25;;;;;;;24.23;12.23;;;512.00;1126.40;;;;;;4884148;29;20032;-79
2021/10/16 10:08:51;;;;;;;18.70;11.32;;;486.50;1254.40;;;;;;4884015;29;20486;-78
2021/10/16 10:11:17;;;;;;;19.20;11.45;;;461.20;1280.00;;;;;;4899055;29;20032;-78
2021/10/16 10:13:44;;;;;;;22.30;18.25;;;461.00;1331.20;;;;;;4900679;29;20028;-78
2021/10/16 10:16:10;;;;;;;18.98;12.60;;;435.90;1305.60;;;;;;4897767;29;20039;-78
2021/10/16 10:21:23;;;;;;;15.38;9.43;;;410.50;1280.00;;;;;;4908360;29;20035;-78
2021/10/16 10:23:56;;;;;;;14.18;8.70;;;410.20;1356.80;;;;;;4895105;29;20173;-79
2021/10/16 10:26:34;;;;;;;17.05;10.23;;;410.00;1356.80;;;;;;4900531;29;20413;-89
2021/10/16 10:29:08;;;;;;;21.40;12.85;;;409.90;1408.00;;;;;;4902686;29;20494;-80
2021/10/16 10:32:01;;;;;;;17.50;10.57;;;409.70;1459.20;;;;;;4902062;29;20035;-80
2021/10/16 10:34:34;;;;;;;15.93;11.25;;;409.60;1433.60;;;;;;4898261;29;20036;-80
2021/10/16 10:37:04;;;;;;;14.70;10.03;;;384.90;1433.60;;;;;;4919442;29;20032;-80
2021/10/16 10:39:33;;;;;;;23.85;12.75;;;384.80;1433.60;;;;;;4902293;29;20261;-80
2021/10/16 10:42:24;;;;;;;12.00;8.68;;;384.80;1433.60;;;;;;4898924;29;20052;-80
2021/10/16 10:44:55;;;;;;;14.20;8.45;;;384.60;1433.60;;;;;;4863705;29;20604;-80
2021/10/16 10:47:28;;;;;;;17.23;7.80;;;384.50;1433.60;;;;;;4901397;29;20092;-79
2021/10/16 10:49:55;;;;;;;;;;;384.50;1408.00;;;;;;4900905;29;20040;-91
2021/10/16 10:52:23;;;;;;;13.73;7.85;;;384.40;1408.00;;;;;;4883801;29;19908;-80
2021/10/16 10:55:01;;;;;;;15.60;9.40;;;384.40;1356.80;;;;;;4900840;29;20029;-80
2021/10/16 10:57:45;;;;;;;16.20;9.68;;;384.40;1356.80;;;;;;4880093;29;20136;-79
2021/10/16 11:00:13;;;;;;;16.63;11.20;;;384.20;1331.20;;;;;;4880293;29;20514;-86
2021/10/16 11:02:39;;;;;;;13.77;10.18;;;384.40;1433.60;;;;;;4880120;29;20039;-81
2021/10/16 11:05:34;;;;;;;15.75;10.40;;;384.40;1433.60;;;;;;4884180;29;20041;-79
2021/10/16 11:08:13;;;;;;;18.75;11.38;;;384.50;1433.60;;;;;;4888260;29;20062;-79
2021/10/16 11:10:41;;;;;;;18.92;12.88;;;384.50;1510.40;;;;;;4898370;29;20091;-79
2021/10/16 11:13:15;;;;;;;15.50;10.32;;;384.70;1484.80;;;;;;4898703;29;20056;-79
2021/10/16 11:15:42;;;;;;;16.73;10.77;;;384.80;1459.20;;;;;;4896768;29;20024;-80
2021/10/16 11:18:16;;;;;;;14.75;10.60;;;384.90;1459.20;;;;;;4897280;29;20036;-82
2021/10/16 11:20:43;;;;;;;13.98;9.05;;;409.60;1484.80;;;;;;4879703;29;20037;-79
2021/10/16 11:23:20;;;;;;;14.88;8.70;;;384.90;1433.60;;;;;;4881433;29;20032;-88
2021/10/16 11:25:57;;;;;;;16.13;11.30;;;384.90;1433.60;;;;;;4880970;29;20033;-78
2021/10/16 11:28:24;;;;;;;13.70;9.20;;;384.90;1433.60;;;;;;4880556;29;20041;-79
2021/10/16 11:30:51;;;;;;;12.98;8.40;;;384.80;1408.00;;;;;;4885563;29;20033;-79
2021/10/16 11:33:20;;;;;;;12.82;8.93;;;384.70;1408.00;;;;;;4896062;29;20097;-78
2021/10/16 11:35:48;;;;;;;15.73;8.05;;;384.70;1408.00;;;;;;4888573;29;20438;-79
2021/10/16 11:38:19;;;;;;;14.85;8.63;;;384.70;1408.00;;;;;;4893333;29;20169;-83
2021/10/16 11:40:45;;;;;;;10.25;6.75;;;384.70;1382.40;;;;;;4890550;29;20020;-79
2021/10/16 11:43:20;;;;;;;18.20;11.05;;;384.70;1408.00;;;;;;4892176;29;20087;-79
2021/10/16 11:45:48;;;;;;;16.25;10.95;;;384.80;1382.40;;;;;;4899087;29;20171;-79
2021/10/16 11:48:17;;;;;;;31.48;18.88;;;384.90;1331.20;;;;;;4897458;29;20478;-79
2021/10/16 11:50:45;;;;;;;59.20;29.02;;;384.90;1408.00;;;;;;4891918;29;20033;-79
2021/10/16 11:53:25;;;;;;;32.50;16.65;;;409.60;1408.00;;;;;;4889246;29;20025;-78
2021/10/16 11:56:08;;;;;;;19.02;11.18;;;409.70;1382.40;;;;;;4890834;29;20119;-80
2021/10/16 11:58:35;;;;;;;61.50;28.02;;;409.90;1356.80;;;;;;4913603;29;20094;-79
2021/10/16 12:01:03;;;;;;;54.78;24.73;;;409.90;1382.40;;;;;;4917508;29;20553;-79
2021/10/16 12:03:40;;;;;;;29.40;14.05;;;409.80;1382.40;;;;;;4917559;29;20028;-78